createdAt,value
2017-04-18T00:00:30.056Z,0
2017-04-18T00:01:10.643Z,0
2017-04-18T00:01:51.211Z,0
2017-04-18T00:02:31.779Z,0
2017-04-18T00:03:12.467Z,0
2017-04-18T00:03:53.049Z,0
2017-04-18T00:04:33.620Z,0
2017-04-18T00:05:14.228Z,0
2017-04-18T00:05:54.887Z,0
2017-04-18T00:06:35.475Z,0
2017-04-18T00:07:16.047Z,0
2017-04-18T00:07:56.622Z,0
2017-04-18T00:08:37.194Z,0
2017-04-18T00:09:17.803Z,0
2017-04-18T00:09:58.434Z,0
2017-04-18T00:10:39.002Z,0
2017-04-18T00:11:19.640Z,0
2017-04-18T00:12:00.205Z,0
2017-04-18T00:12:40.795Z,0
2017-04-18T00:13:21.406Z,0
2017-04-18T00:14:02.010Z,0
2017-04-18T00:14:42.594Z,0
2017-04-18T00:15:23.194Z,0
2017-04-18T00:16:03.791Z,0
2017-04-18T00:16:44.391Z,0
2017-04-18T00:17:24.978Z,0
2017-04-18T00:18:05.574Z,0
2017-04-18T00:18:46.180Z,0
2017-04-18T00:19:26.774Z,0
2017-04-18T00:20:07.391Z,0
2017-04-18T00:20:47.967Z,0
2017-04-18T00:21:28.553Z,0
2017-04-18T00:22:09.117Z,0
2017-04-18T00:22:49.726Z,0
2017-04-18T00:23:30.362Z,0
2017-04-18T00:24:11.019Z,0
2017-04-18T00:24:51.601Z,0
2017-04-18T00:25:32.203Z,0
2017-04-18T00:26:12.792Z,0
2017-04-18T00:26:53.375Z,0
2017-04-18T00:27:33.953Z,0
2017-04-18T00:28:14.563Z,0
2017-04-18T00:28:55.165Z,0
2017-04-18T00:29:35.751Z,0
2017-04-18T00:30:16.337Z,0
2017-04-18T00:30:56.935Z,0
2017-04-18T00:31:37.551Z,0
2017-04-18T00:32:18.123Z,0
2017-04-18T00:32:58.696Z,0
2017-04-18T00:33:39.268Z,0
2017-04-18T00:34:19.866Z,0
2017-04-18T00:35:00.459Z,0
2017-04-18T00:35:41.020Z,0
2017-04-18T00:36:21.587Z,0
2017-04-18T00:37:02.208Z,0
2017-04-18T00:37:42.885Z,0
2017-04-18T00:38:23.485Z,0
2017-04-18T00:39:04.097Z,0
2017-04-18T00:39:44.679Z,0
2017-04-18T00:40:25.271Z,0
2017-04-18T00:41:05.862Z,0
2017-04-18T00:41:46.445Z,0
2017-04-18T00:42:27.028Z,0
2017-04-18T00:43:07.615Z,0
2017-04-18T00:43:48.191Z,0
2017-04-18T00:44:28.774Z,0
2017-04-18T00:45:09.369Z,0
2017-04-18T00:45:50.025Z,0
2017-04-18T00:46:30.614Z,0
2017-04-18T00:47:11.295Z,0
2017-04-18T00:47:51.894Z,0
2017-04-18T00:48:32.496Z,0
2017-04-18T00:49:13.126Z,0
2017-04-18T00:49:53.786Z,0
2017-04-18T00:50:34.318Z,0
2017-04-18T00:51:14.944Z,0
2017-04-18T00:51:55.535Z,0
2017-04-18T00:52:36.098Z,0
2017-04-18T00:53:16.679Z,0
2017-04-18T00:53:57.404Z,0
2017-04-18T00:54:38.016Z,0
2017-04-18T00:55:18.647Z,0
2017-04-18T00:55:59.214Z,0
2017-04-18T00:56:39.798Z,0
2017-04-18T00:57:20.406Z,0
2017-04-18T00:58:01.012Z,0
2017-04-18T00:58:41.614Z,0
2017-04-18T00:59:22.205Z,0
2017-04-18T01:00:02.748Z,0
2017-04-18T01:00:43.322Z,0
2017-04-18T01:01:23.899Z,0
2017-04-18T01:02:04.526Z,0
2017-04-18T01:02:45.054Z,0
2017-04-18T01:03:25.658Z,0
2017-04-18T01:04:06.272Z,0
2017-04-18T01:04:46.874Z,0
2017-04-18T01:05:27.439Z,0
2017-04-18T01:06:08.093Z,0
2017-04-18T01:06:48.665Z,0
2017-04-18T01:07:29.287Z,0
2017-04-18T01:08:09.848Z,0
2017-04-18T01:08:50.412Z,0
2017-04-18T01:09:31.014Z,0
2017-04-18T01:10:11.588Z,0
2017-04-18T01:10:52.176Z,0
2017-04-18T01:11:32.787Z,0
2017-04-18T01:12:13.401Z,0
2017-04-18T01:12:53.961Z,0
2017-04-18T01:13:34.576Z,0
2017-04-18T01:14:15.150Z,0
2017-04-18T01:14:55.729Z,0
2017-04-18T01:15:36.310Z,0
2017-04-18T01:16:16.895Z,0
2017-04-18T01:16:57.487Z,0
2017-04-18T01:17:38.088Z,0
2017-04-18T01:18:18.651Z,0
2017-04-18T01:18:59.297Z,0
2017-04-18T01:19:39.911Z,0
2017-04-18T01:20:20.507Z,0
2017-04-18T01:21:01.142Z,0
2017-04-18T01:21:41.740Z,0
2017-04-18T01:22:22.323Z,0
2017-04-18T01:23:02.899Z,0
2017-04-18T01:23:43.490Z,0
2017-04-18T01:24:24.080Z,0
2017-04-18T01:25:04.667Z,0
2017-04-18T01:25:45.264Z,0
2017-04-18T01:26:25.834Z,0
2017-04-18T01:27:06.411Z,0
2017-04-18T01:27:47.022Z,0
2017-04-18T01:28:27.640Z,0
2017-04-18T01:29:08.217Z,0
2017-04-18T01:29:48.804Z,0
2017-04-18T01:30:29.369Z,0
2017-04-18T01:31:09.970Z,0
2017-04-18T01:31:50.553Z,0
2017-04-18T01:32:31.163Z,0
2017-04-18T01:33:11.727Z,0
2017-04-18T01:33:52.303Z,0
2017-04-18T01:34:32.890Z,0
2017-04-18T01:35:13.517Z,0
2017-04-18T01:35:54.095Z,0
2017-04-18T01:36:34.687Z,0
2017-04-18T01:37:15.271Z,0
2017-04-18T01:37:55.896Z,0
2017-04-18T01:38:36.483Z,0
2017-04-18T01:39:17.068Z,0
2017-04-18T01:39:57.670Z,0
2017-04-18T01:40:38.273Z,0
2017-04-18T01:41:18.861Z,0
2017-04-18T01:41:59.444Z,0
2017-04-18T01:42:40.012Z,0
2017-04-18T01:43:20.591Z,0
2017-04-18T01:44:01.182Z,0
2017-04-18T01:44:41.756Z,0
2017-04-18T01:45:22.844Z,0
2017-04-18T01:46:04.261Z,0
2017-04-18T01:46:45.657Z,0
2017-04-18T01:47:26.818Z,0
2017-04-18T01:48:08.097Z,0
2017-04-18T01:48:49.411Z,0
2017-04-18T01:49:30.386Z,0
2017-04-18T01:50:12.935Z,0
2017-04-18T01:50:56.414Z,0
2017-04-18T01:51:39.915Z,0
2017-04-18T01:52:21.144Z,0
2017-04-18T01:53:05.408Z,0
2017-04-18T01:53:47.436Z,0
2017-04-18T01:54:29.857Z,0
2017-04-18T01:55:12.990Z,0
2017-04-18T01:55:55.953Z,0
2017-04-18T01:56:38.411Z,0
2017-04-18T01:57:21.481Z,0
2017-04-18T01:58:01.965Z,0
2017-04-18T01:58:42.533Z,0
2017-04-18T01:59:23.157Z,0
2017-04-18T02:00:03.741Z,0
2017-04-18T02:00:44.575Z,0
2017-04-18T02:01:25.144Z,0
2017-04-18T02:02:06.325Z,0
2017-04-18T02:02:46.899Z,0
2017-04-18T02:03:27.491Z,0
2017-04-18T02:04:08.086Z,0
2017-04-18T02:04:48.667Z,0
2017-04-18T02:05:29.276Z,0
2017-04-18T02:06:09.847Z,0
2017-04-18T02:06:50.549Z,0
2017-04-18T02:07:31.150Z,0
2017-04-18T02:08:11.722Z,0
2017-04-18T02:08:52.335Z,0
2017-04-18T02:09:33.013Z,0
2017-04-18T02:10:13.649Z,0
2017-04-18T02:10:54.279Z,0
2017-04-18T02:11:34.872Z,0
2017-04-18T02:12:15.467Z,0
2017-04-18T02:12:56.057Z,0
2017-04-18T02:13:36.680Z,0
2017-04-18T02:14:17.233Z,0
2017-04-18T02:14:57.765Z,0
2017-04-18T02:15:38.351Z,0
2017-04-18T02:16:18.943Z,0
2017-04-18T02:16:59.578Z,0
2017-04-18T02:17:40.168Z,0
2017-04-18T02:18:20.754Z,0
2017-04-18T02:19:01.350Z,0
2017-04-18T02:19:41.926Z,0
2017-04-18T02:20:22.507Z,0
2017-04-18T02:21:03.125Z,0
2017-04-18T02:21:43.711Z,0
2017-04-18T02:22:24.291Z,0
2017-04-18T02:23:04.881Z,0
2017-04-18T02:23:45.457Z,0
2017-04-18T02:24:26.044Z,0
2017-04-18T02:25:06.620Z,0
2017-04-18T02:25:47.205Z,0
2017-04-18T02:26:27.796Z,0
2017-04-18T02:27:08.390Z,0
2017-04-18T02:27:48.975Z,0
2017-04-18T02:28:29.573Z,0
2017-04-18T02:29:10.177Z,0
2017-04-18T02:29:50.776Z,0
2017-04-18T02:30:31.309Z,0
2017-04-18T02:31:11.898Z,0
2017-04-18T02:31:52.453Z,0
2017-04-18T02:32:33.020Z,0
2017-04-18T02:33:13.594Z,0
2017-04-18T02:33:54.181Z,0
2017-04-18T02:34:34.758Z,0
2017-04-18T02:35:15.364Z,0
2017-04-18T02:35:55.931Z,0
2017-04-18T02:36:36.531Z,0
2017-04-18T02:37:17.139Z,0
2017-04-18T02:37:57.707Z,0
2017-04-18T02:38:38.290Z,0
2017-04-18T02:39:18.907Z,0
2017-04-18T02:39:59.491Z,0
2017-04-18T02:40:40.088Z,0
2017-04-18T02:41:20.677Z,0
2017-04-18T02:42:01.305Z,0
2017-04-18T02:42:42.115Z,0
2017-04-18T02:43:22.710Z,0
2017-04-18T02:44:03.303Z,0
2017-04-18T02:44:43.914Z,0
2017-04-18T02:45:24.509Z,0
2017-04-18T02:46:05.096Z,0
2017-04-18T02:46:45.671Z,0
2017-04-18T02:47:26.268Z,0
2017-04-18T02:48:06.843Z,0
2017-04-18T02:48:47.420Z,0
2017-04-18T02:49:28.036Z,0
2017-04-18T02:50:08.640Z,0
2017-04-18T02:50:49.246Z,0
2017-04-18T02:51:29.831Z,0
2017-04-18T02:52:10.398Z,0
2017-04-18T02:52:50.983Z,0
2017-04-18T02:53:31.571Z,0
2017-04-18T02:54:12.164Z,0
2017-04-18T02:54:52.743Z,0
2017-04-18T02:55:33.328Z,0
2017-04-18T02:56:13.982Z,0
2017-04-18T02:56:54.588Z,0
2017-04-18T02:57:35.170Z,0
2017-04-18T02:58:15.775Z,0
2017-04-18T02:58:56.346Z,0
2017-04-18T02:59:36.944Z,0
2017-04-18T03:00:17.591Z,0
2017-04-18T03:00:58.195Z,0
2017-04-18T03:01:38.798Z,0
2017-04-18T03:02:19.391Z,0
2017-04-18T03:02:59.993Z,0
2017-04-18T03:03:40.601Z,0
2017-04-18T03:04:21.178Z,0
2017-04-18T03:05:01.750Z,0
2017-04-18T03:05:42.319Z,0
2017-04-18T03:06:22.919Z,0
2017-04-18T03:07:03.490Z,0
2017-04-18T03:07:44.083Z,0
2017-04-18T03:08:24.656Z,0
2017-04-18T03:09:05.278Z,0
2017-04-18T03:09:45.847Z,0
2017-04-18T03:10:26.438Z,0
2017-04-18T03:11:07.036Z,0
2017-04-18T03:11:47.637Z,0
2017-04-18T03:12:28.207Z,0
2017-04-18T03:13:08.782Z,0
2017-04-18T03:13:49.380Z,0
2017-04-18T03:14:30.010Z,0
2017-04-18T03:15:10.558Z,0
2017-04-18T03:15:51.174Z,0
2017-04-18T03:16:31.740Z,0
2017-04-18T03:17:12.309Z,0
2017-04-18T03:17:52.881Z,0
2017-04-18T03:18:33.506Z,0
2017-04-18T03:19:14.083Z,0
2017-04-18T03:19:54.655Z,0
2017-04-18T03:20:35.286Z,0
2017-04-18T03:21:15.867Z,0
2017-04-18T03:21:56.457Z,0
2017-04-18T03:22:37.054Z,0
2017-04-18T03:23:17.670Z,0
2017-04-18T03:23:58.267Z,0
2017-04-18T03:24:38.892Z,0
2017-04-18T03:25:19.467Z,0
2017-04-18T03:26:00.065Z,0
2017-04-18T03:26:40.653Z,0
2017-04-18T03:27:21.225Z,0
2017-04-18T03:28:01.801Z,0
2017-04-18T03:28:42.401Z,0
2017-04-18T03:29:23.033Z,0
2017-04-18T03:30:03.664Z,0
2017-04-18T03:30:44.261Z,0
2017-04-18T03:31:24.847Z,0
2017-04-18T03:32:05.412Z,0
2017-04-18T03:32:46.008Z,0
2017-04-18T03:33:26.580Z,0
2017-04-18T03:34:07.172Z,0
2017-04-18T03:34:47.751Z,0
2017-04-18T03:35:28.319Z,0
2017-04-18T03:36:08.897Z,0
2017-04-18T03:36:49.482Z,0
2017-04-18T03:37:30.059Z,0
2017-04-18T03:38:10.628Z,0
2017-04-18T03:38:51.219Z,0
2017-04-18T03:39:31.824Z,0
2017-04-18T03:40:12.414Z,0
2017-04-18T03:40:52.971Z,0
2017-04-18T03:41:33.573Z,4
2017-04-18T03:42:14.168Z,4
2017-04-18T03:42:54.748Z,4
2017-04-18T03:43:35.311Z,4
2017-04-18T03:44:15.892Z,0
2017-04-18T03:44:56.477Z,0
2017-04-18T03:45:37.049Z,0
2017-04-18T03:46:17.644Z,4
2017-04-18T03:46:58.236Z,4
2017-04-18T03:47:38.822Z,4
2017-04-18T03:48:19.411Z,4
2017-04-18T03:48:59.987Z,4
2017-04-18T03:49:40.629Z,0
2017-04-18T03:50:21.176Z,4
2017-04-18T03:51:01.769Z,4
2017-04-18T03:51:42.356Z,4
2017-04-18T03:52:22.947Z,4
2017-04-18T03:53:03.551Z,4
2017-04-18T03:53:44.135Z,4
2017-04-18T03:54:24.723Z,4
2017-04-18T03:55:05.291Z,8
2017-04-18T03:55:45.899Z,8
2017-04-18T03:56:26.491Z,12
2017-04-18T03:57:07.148Z,12
2017-04-18T03:57:47.759Z,12
2017-04-18T03:58:28.346Z,16
2017-04-18T03:59:08.937Z,16
2017-04-18T03:59:49.516Z,12
2017-04-18T04:00:30.123Z,12
2017-04-18T04:01:10.711Z,16
2017-04-18T04:01:51.315Z,16
2017-04-18T04:02:31.937Z,20
2017-04-18T04:03:12.546Z,20
2017-04-18T04:03:53.130Z,20
2017-04-18T04:04:33.732Z,20
2017-04-18T04:05:14.324Z,20
2017-04-18T04:05:54.938Z,24
2017-04-18T04:06:35.500Z,28
2017-04-18T04:07:16.094Z,28
2017-04-18T04:07:56.670Z,32
2017-04-18T04:08:37.245Z,32
2017-04-18T04:09:17.829Z,32
2017-04-18T04:09:58.420Z,32
2017-04-18T04:10:38.985Z,36
2017-04-18T04:11:19.563Z,44
2017-04-18T04:12:00.207Z,44
2017-04-18T04:12:40.804Z,40
2017-04-18T04:13:21.374Z,44
2017-04-18T04:14:01.960Z,44
2017-04-18T04:14:42.513Z,48
2017-04-18T04:15:23.098Z,52
2017-04-18T04:16:03.669Z,64
2017-04-18T04:16:44.260Z,72
2017-04-18T04:17:24.855Z,68
2017-04-18T04:18:05.454Z,80
2017-04-18T04:18:46.029Z,88
2017-04-18T04:19:26.616Z,92
2017-04-18T04:20:07.223Z,92
2017-04-18T04:20:47.820Z,84
2017-04-18T04:21:28.414Z,76
2017-04-18T04:22:08.988Z,68
2017-04-18T04:22:49.585Z,64
2017-04-18T04:23:30.183Z,64
2017-04-18T04:24:10.780Z,68
2017-04-18T04:24:51.369Z,76
2017-04-18T04:25:31.946Z,68
2017-04-18T04:26:12.576Z,68
2017-04-18T04:26:53.175Z,68
2017-04-18T04:27:33.762Z,64
2017-04-18T04:28:14.345Z,60
2017-04-18T04:28:54.936Z,64
2017-04-18T04:29:35.536Z,68
2017-04-18T04:30:16.170Z,68
2017-04-18T04:30:56.757Z,60
2017-04-18T04:31:37.366Z,64
2017-04-18T04:32:17.959Z,84
2017-04-18T04:32:58.590Z,84
2017-04-18T04:33:39.211Z,80
2017-04-18T04:34:19.831Z,84
2017-04-18T04:35:00.404Z,92
2017-04-18T04:35:40.996Z,96
2017-04-18T04:36:21.584Z,92
2017-04-18T04:37:02.204Z,80
2017-04-18T04:37:42.785Z,72
2017-04-18T04:38:23.421Z,64
2017-04-18T04:39:04.014Z,60
2017-04-18T04:39:44.645Z,56
2017-04-18T04:40:25.224Z,56
2017-04-18T04:41:05.798Z,52
2017-04-18T04:41:46.396Z,52
2017-04-18T04:42:27.029Z,56
2017-04-18T04:43:07.698Z,60
2017-04-18T04:43:48.277Z,72
2017-04-18T04:44:28.872Z,92
2017-04-18T04:45:09.491Z,96
2017-04-18T04:45:50.072Z,100
2017-04-18T04:46:30.652Z,96
2017-04-18T04:47:11.279Z,100
2017-04-18T04:47:51.868Z,100
2017-04-18T04:48:32.468Z,100
2017-04-18T04:49:13.331Z,96
2017-04-18T04:49:54.050Z,96
2017-04-18T04:50:34.634Z,96
2017-04-18T04:51:15.217Z,100
2017-04-18T04:51:55.827Z,108
2017-04-18T04:52:36.397Z,96
2017-04-18T04:53:16.985Z,84
2017-04-18T04:53:57.569Z,80
2017-04-18T04:54:38.220Z,72
2017-04-18T04:55:18.794Z,68
2017-04-18T04:55:59.413Z,72
2017-04-18T04:56:40.004Z,76
2017-04-18T04:57:20.601Z,84
2017-04-18T04:58:01.219Z,88
2017-04-18T04:58:41.823Z,96
2017-04-18T04:59:22.402Z,120
2017-04-18T05:00:02.985Z,128
2017-04-18T05:00:43.580Z,124
2017-04-18T05:01:24.166Z,128
2017-04-18T05:02:04.758Z,120
2017-04-18T05:02:45.346Z,120
2017-04-18T05:03:25.924Z,108
2017-04-18T05:04:06.510Z,100
2017-04-18T05:04:47.121Z,108
2017-04-18T05:05:27.715Z,112
2017-04-18T05:06:08.292Z,100
2017-04-18T05:06:48.882Z,96
2017-04-18T05:07:29.530Z,96
2017-04-18T05:08:10.120Z,100
2017-04-18T05:08:50.712Z,112
2017-04-18T05:09:31.282Z,128
2017-04-18T05:10:11.875Z,116
2017-04-18T05:10:52.557Z,108
2017-04-18T05:11:33.148Z,104
2017-04-18T05:12:13.851Z,112
2017-04-18T05:12:54.429Z,124
2017-04-18T05:13:35.032Z,144
2017-04-18T05:14:15.605Z,160
2017-04-18T05:14:56.243Z,168
2017-04-18T05:17:09.309Z,144
2017-04-18T05:17:49.926Z,160
2017-04-18T05:18:30.531Z,180
2017-04-18T05:19:11.119Z,200
2017-04-18T05:19:51.690Z,204
2017-04-18T05:20:32.273Z,224
2017-04-18T05:21:12.877Z,264
2017-04-18T05:21:53.467Z,320
2017-04-18T05:22:34.058Z,368
2017-04-18T05:23:14.623Z,360
2017-04-18T05:23:55.244Z,356
2017-04-18T05:24:35.837Z,380
2017-04-18T05:25:16.421Z,400
2017-04-18T05:25:57.042Z,388
2017-04-18T05:26:37.630Z,392
2017-04-18T05:27:18.215Z,376
2017-04-18T05:27:58.795Z,344
2017-04-18T05:28:39.689Z,344
2017-04-18T05:29:20.316Z,368
2017-04-18T05:30:00.893Z,352
2017-04-18T05:30:41.526Z,324
2017-04-18T05:31:22.099Z,280
2017-04-18T05:32:02.679Z,284
2017-04-18T05:32:43.284Z,284
2017-04-18T05:33:23.868Z,292
2017-04-18T05:34:04.450Z,292
2017-04-18T05:34:45.068Z,276
2017-04-18T05:35:25.688Z,268
2017-04-18T05:36:06.256Z,260
2017-04-18T05:36:46.852Z,256
2017-04-18T05:37:27.441Z,276
2017-04-18T05:38:08.063Z,292
2017-04-18T05:38:48.636Z,300
2017-04-18T05:39:29.254Z,308
2017-04-18T05:40:09.890Z,356
2017-04-18T05:40:50.500Z,380
2017-04-18T05:41:31.184Z,356
2017-04-18T05:42:11.795Z,356
2017-04-18T05:42:52.365Z,384
2017-04-18T05:43:32.936Z,424
2017-04-18T05:44:13.524Z,432
2017-04-18T05:44:54.110Z,432
2017-04-18T05:45:34.715Z,428
2017-04-18T05:46:15.342Z,436
2017-04-18T05:46:55.930Z,432
2017-04-18T05:47:36.514Z,416
2017-04-18T05:48:17.141Z,392
2017-04-18T05:48:57.704Z,384
2017-04-18T05:49:38.285Z,432
2017-04-18T05:50:18.847Z,440
2017-04-18T05:50:59.459Z,444
2017-04-18T05:51:40.071Z,456
2017-04-18T05:52:20.706Z,472
2017-04-18T05:53:01.321Z,496
2017-04-18T05:53:41.928Z,532
2017-04-18T05:54:22.514Z,540
2017-04-18T05:55:03.135Z,596
2017-04-18T05:55:43.721Z,656
2017-04-18T05:56:24.295Z,700
2017-04-18T05:57:04.905Z,744
2017-04-18T05:57:45.483Z,728
2017-04-18T05:58:26.082Z,716
2017-04-18T05:59:06.784Z,712
2017-04-18T05:59:47.362Z,732
2017-04-18T06:00:27.952Z,756
2017-04-18T06:01:08.522Z,784
2017-04-18T06:01:49.162Z,800
2017-04-18T06:02:29.723Z,792
2017-04-18T06:03:10.321Z,788
2017-04-18T06:03:50.937Z,808
2017-04-18T06:04:31.547Z,816
2017-04-18T06:05:12.162Z,808
2017-04-18T06:05:52.741Z,800
2017-04-18T06:06:33.363Z,804
2017-04-18T06:07:13.954Z,808
2017-04-18T06:07:54.546Z,780
2017-04-18T06:08:35.160Z,736
2017-04-18T06:09:15.749Z,700
2017-04-18T06:09:56.349Z,608
2017-04-18T06:10:36.974Z,584
2017-04-18T06:11:17.671Z,596
2017-04-18T06:11:58.282Z,592
2017-04-18T06:12:38.876Z,580
2017-04-18T06:13:19.461Z,588
2017-04-18T06:14:00.050Z,612
2017-04-18T06:14:40.671Z,636
2017-04-18T06:15:21.239Z,668
2017-04-18T06:16:01.827Z,748
2017-04-18T06:16:42.419Z,840
2017-04-18T06:17:23.032Z,964
2017-04-18T06:18:03.625Z,1044
2017-04-18T06:18:44.241Z,1096
2017-04-18T06:19:24.824Z,1180
2017-04-18T06:20:05.406Z,1384
2017-04-18T06:20:46.006Z,1324
2017-04-18T06:21:26.579Z,1172
2017-04-18T06:22:07.183Z,992
2017-04-18T06:22:47.787Z,892
2017-04-18T06:23:28.407Z,896
2017-04-18T06:24:09.043Z,960
2017-04-18T06:24:49.643Z,1056
2017-04-18T06:25:30.253Z,1100
2017-04-18T06:26:10.848Z,1144
2017-04-18T06:26:51.428Z,1064
2017-04-18T06:27:32.084Z,1024
2017-04-18T06:28:12.701Z,1068
2017-04-18T06:28:53.316Z,1068
2017-04-18T06:29:33.918Z,1052
2017-04-18T06:30:14.539Z,1040
2017-04-18T06:30:55.153Z,984
2017-04-18T06:31:35.714Z,1020
2017-04-18T06:32:16.305Z,1120
2017-04-18T06:32:56.932Z,1124
2017-04-18T06:33:37.532Z,1096
2017-04-18T06:34:18.116Z,1112
2017-04-18T06:34:58.761Z,1260
2017-04-18T06:35:39.342Z,1536
2017-04-18T06:36:19.923Z,2180
2017-04-18T06:37:00.536Z,2736
2017-04-18T06:37:41.125Z,2784
2017-04-18T06:38:21.763Z,2772
2017-04-18T06:39:02.366Z,2832
2017-04-18T06:39:43.003Z,3248
2017-04-18T06:40:23.585Z,3876
2017-04-18T06:41:04.187Z,3916
2017-04-18T06:41:44.830Z,3772
2017-04-18T06:42:25.426Z,3696
2017-04-18T06:43:06.009Z,3744
2017-04-18T06:43:46.581Z,3896
2017-04-18T06:44:27.230Z,3800
2017-04-18T06:45:07.865Z,3056
2017-04-18T06:45:48.690Z,2772
2017-04-18T06:46:29.365Z,2868
2017-04-18T06:47:09.955Z,2632
2017-04-18T06:47:50.886Z,2496
2017-04-18T06:48:32.006Z,2824
2017-04-18T06:49:12.409Z,2500
2017-04-18T06:49:53.074Z,2380
2017-04-18T06:50:33.684Z,2620
2017-04-18T06:51:14.592Z,1968
2017-04-18T06:51:55.312Z,1876
2017-04-18T06:52:35.901Z,1884
2017-04-18T06:53:16.785Z,1840
2017-04-18T06:53:57.872Z,1804
2017-04-18T06:54:38.406Z,2132
2017-04-18T06:55:19.037Z,2936
2017-04-18T06:55:59.645Z,4676
2017-04-18T06:56:40.371Z,4820
2017-04-18T06:57:20.870Z,4924
2017-04-18T06:58:01.522Z,5552
2017-04-18T06:58:42.112Z,6228
2017-04-18T06:59:22.716Z,6608
2017-04-18T07:00:03.318Z,5008
2017-04-18T07:00:43.891Z,6532
2017-04-18T07:01:24.490Z,5988
2017-04-18T07:02:05.074Z,4272
2017-04-18T07:02:45.715Z,4128
2017-04-18T07:03:26.298Z,4176
2017-04-18T07:04:06.865Z,4848
2017-04-18T07:04:47.518Z,6768
2017-04-18T07:05:28.139Z,6104
2017-04-18T07:06:08.743Z,5644
2017-04-18T07:06:49.583Z,7060
2017-04-18T07:07:31.138Z,11340
2017-04-18T07:08:11.716Z,14736
2017-04-18T07:08:52.320Z,17440
2017-04-18T07:09:32.991Z,7924
2017-04-18T07:10:13.570Z,8616
2017-04-18T07:10:54.136Z,8152
2017-04-18T07:11:34.705Z,4596
2017-04-18T07:12:15.290Z,4840
2017-04-18T07:12:55.898Z,3776
2017-04-18T07:13:36.527Z,2968
2017-04-18T07:14:17.096Z,2924
2017-04-18T07:14:57.667Z,3884
2017-04-18T07:15:38.258Z,4640
2017-04-18T07:16:19.232Z,4236
2017-04-18T07:16:59.836Z,3432
2017-04-18T07:17:41.553Z,2960
2017-04-18T07:18:23.100Z,3136
2017-04-18T07:19:04.185Z,3128
2017-04-18T07:19:45.440Z,2744
2017-04-18T07:20:26.385Z,2732
2017-04-18T07:21:06.964Z,2312
2017-04-18T07:21:47.581Z,2200
2017-04-18T07:22:28.154Z,2592
2017-04-18T07:23:08.764Z,2684
2017-04-18T07:23:49.364Z,2460
2017-04-18T07:24:29.945Z,2488
2017-04-18T07:25:10.605Z,2732
2017-04-18T07:25:51.198Z,2836
2017-04-18T07:26:31.813Z,3232
2017-04-18T07:27:12.429Z,3656
2017-04-18T07:27:53.021Z,4708
2017-04-18T07:28:33.604Z,5092
2017-04-18T07:29:14.217Z,5484
2017-04-18T07:29:54.845Z,5452
2017-04-18T07:30:35.458Z,4956
2017-04-18T07:31:16.040Z,5464
2017-04-18T07:31:56.686Z,4216
2017-04-18T07:32:37.297Z,3668
2017-04-18T07:33:17.888Z,3508
2017-04-18T07:33:58.498Z,3580
2017-04-18T07:34:39.144Z,3672
2017-04-18T07:35:19.785Z,3964
2017-04-18T07:36:00.403Z,3516
2017-04-18T07:36:40.954Z,3576
2017-04-18T07:37:21.649Z,3328
2017-04-18T07:38:02.274Z,3284
2017-04-18T07:38:42.915Z,3216
2017-04-18T07:39:23.504Z,3668
2017-04-18T07:40:04.100Z,3492
2017-04-18T07:40:44.708Z,2864
2017-04-18T07:41:25.422Z,2516
2017-04-18T07:42:06.007Z,2364
2017-04-18T07:42:46.605Z,2648
2017-04-18T07:43:27.236Z,2940
2017-04-18T07:44:07.909Z,3244
2017-04-18T07:44:48.525Z,2924
2017-04-18T07:45:29.122Z,2704
2017-04-18T07:46:09.778Z,2516
2017-04-18T07:46:50.438Z,2560
2017-04-18T07:47:30.962Z,2584
2017-04-18T07:48:11.549Z,2668
2017-04-18T07:48:52.254Z,2720
2017-04-18T07:49:32.839Z,2600
2017-04-18T07:50:13.434Z,2592
2017-04-18T07:50:54.029Z,2480
2017-04-18T07:51:34.621Z,2520
2017-04-18T07:52:15.191Z,2472
2017-04-18T07:52:55.841Z,2312
2017-04-18T07:53:36.430Z,2200
2017-04-18T07:54:17.051Z,2184
2017-04-18T07:54:57.658Z,2248
2017-04-18T07:55:38.261Z,2424
2017-04-18T07:56:18.854Z,2484
2017-04-18T07:56:59.450Z,2376
2017-04-18T07:57:40.021Z,2432
2017-04-18T07:58:20.667Z,2744
2017-04-18T07:59:01.244Z,3488
2017-04-18T07:59:41.879Z,4328
2017-04-18T08:00:22.505Z,4748
2017-04-18T08:01:03.123Z,4748
2017-04-18T08:01:43.693Z,5868
2017-04-18T08:02:24.322Z,5496
2017-04-18T08:03:04.917Z,4804
2017-04-18T08:03:45.549Z,4216
2017-04-18T08:04:26.305Z,3972
2017-04-18T08:05:06.870Z,4644
2017-04-18T08:05:47.475Z,4792
2017-04-18T08:06:28.060Z,5412
2017-04-18T08:07:08.680Z,5684
2017-04-18T08:07:49.263Z,5104
2017-04-18T08:08:29.853Z,4876
2017-04-18T08:09:10.451Z,4536
2017-04-18T08:09:51.038Z,4612
2017-04-18T08:10:31.726Z,4616
2017-04-18T08:11:12.335Z,4400
2017-04-18T08:11:52.931Z,4432
2017-04-18T08:12:33.537Z,4092
2017-04-18T08:13:14.304Z,4120
2017-04-18T08:13:54.979Z,4384
2017-04-18T08:14:35.596Z,4336
2017-04-18T08:15:16.207Z,3984
2017-04-18T08:15:56.830Z,3848
2017-04-18T08:16:37.419Z,3968
2017-04-18T08:17:18.018Z,3728
2017-04-18T08:17:58.630Z,3360
2017-04-18T08:18:39.259Z,3136
2017-04-18T08:19:19.868Z,3120
2017-04-18T08:20:00.494Z,3028
2017-04-18T08:20:41.067Z,3424
2017-04-18T08:21:21.839Z,4012
2017-04-18T08:22:02.423Z,4212
2017-04-18T08:22:43.027Z,4580
2017-04-18T08:23:23.619Z,5040
2017-04-18T08:24:04.333Z,5404
2017-04-18T08:24:44.944Z,5604
2017-04-18T08:25:25.571Z,6048
2017-04-18T08:26:06.172Z,6672
2017-04-18T08:26:46.820Z,7316
2017-04-18T08:27:27.398Z,8116
2017-04-18T08:28:07.993Z,9044
2017-04-18T08:28:48.632Z,9260
2017-04-18T08:29:29.237Z,11212
2017-04-18T08:30:09.859Z,13640
2017-04-18T08:30:50.544Z,13864
2017-04-18T08:31:31.108Z,13308
2017-04-18T08:32:11.704Z,14248
2017-04-18T08:32:52.315Z,15080
2017-04-18T08:33:32.892Z,15040
2017-04-18T08:34:13.471Z,14316
2017-04-18T08:34:54.063Z,12944
2017-04-18T08:35:34.689Z,10276
2017-04-18T08:36:15.297Z,9156
2017-04-18T08:36:55.877Z,10332
2017-04-18T08:37:36.510Z,10696
2017-04-18T08:38:17.097Z,9876
2017-04-18T08:38:57.672Z,11176
2017-04-18T08:39:38.245Z,11984
2017-04-18T08:40:18.901Z,13140
2017-04-18T08:40:59.530Z,13016
2017-04-18T08:41:40.116Z,14060
2017-04-18T08:42:20.693Z,14128
2017-04-18T08:43:01.283Z,13732
2017-04-18T08:43:41.953Z,13016
2017-04-18T08:44:22.548Z,11452
2017-04-18T08:45:03.124Z,11680
2017-04-18T08:45:43.748Z,11668
2017-04-18T08:46:24.400Z,12760
2017-04-18T08:47:04.998Z,12796
2017-04-18T08:47:45.565Z,11916
2017-04-18T08:48:26.203Z,10772
2017-04-18T08:49:06.811Z,10504
2017-04-18T08:49:47.397Z,10052
2017-04-18T08:50:28.017Z,9392
2017-04-18T08:51:08.584Z,11432
2017-04-18T08:51:49.170Z,12648
2017-04-18T08:52:29.892Z,15056
2017-04-18T08:53:10.421Z,16384
2017-04-18T08:53:51.010Z,16416
2017-04-18T08:54:31.599Z,14416
2017-04-18T08:55:12.233Z,14208
2017-04-18T08:55:52.839Z,13296
2017-04-18T08:56:33.433Z,12656
2017-04-18T08:57:14.035Z,11472
2017-04-18T08:57:54.625Z,12412
2017-04-18T08:58:35.266Z,11960
2017-04-18T08:59:15.841Z,9768
2017-04-18T08:59:56.475Z,9380
2017-04-18T09:00:37.099Z,9496
2017-04-18T09:01:17.684Z,9420
2017-04-18T09:01:58.346Z,9724
2017-04-18T09:02:38.971Z,10508
2017-04-18T09:03:19.579Z,10264
2017-04-18T09:04:00.232Z,9936
2017-04-18T09:04:40.839Z,11908
2017-04-18T09:05:21.475Z,12596
2017-04-18T09:06:02.056Z,10172
2017-04-18T09:06:42.636Z,8364
2017-04-18T09:07:23.311Z,8740
2017-04-18T09:08:03.898Z,10316
2017-04-18T09:08:45.092Z,11336
2017-04-18T09:09:26.022Z,11820
2017-04-18T09:10:06.606Z,11824
2017-04-18T09:10:47.671Z,12068
2017-04-18T09:11:28.294Z,11920
2017-04-18T09:12:08.949Z,11492
2017-04-18T09:12:49.565Z,12060
2017-04-18T09:13:30.187Z,12536
2017-04-18T09:14:10.803Z,11596
2017-04-18T09:14:51.968Z,9676
2017-04-18T09:15:32.578Z,10116
2017-04-18T09:16:13.168Z,9712
2017-04-18T09:16:53.812Z,11124
2017-04-18T09:17:34.444Z,10344
2017-04-18T09:18:15.194Z,11144
2017-04-18T09:18:55.831Z,10964
2017-04-18T09:19:36.417Z,9912
2017-04-18T09:20:17.250Z,9780
2017-04-18T09:20:57.772Z,11216
2017-04-18T09:21:38.399Z,10632
2017-04-18T09:22:19.100Z,9864
2017-04-18T09:22:59.699Z,11224
2017-04-18T09:23:40.315Z,11656
2017-04-18T09:24:20.927Z,11436
2017-04-18T09:25:01.545Z,9556
2017-04-18T09:25:42.185Z,8332
2017-04-18T09:26:22.837Z,8152
2017-04-18T09:27:03.396Z,8036
2017-04-18T09:27:44.001Z,7792
2017-04-18T09:28:24.741Z,7240
2017-04-18T09:29:05.261Z,6816
2017-04-18T09:29:45.833Z,6372
2017-04-18T09:30:26.431Z,7228
2017-04-18T09:31:07.078Z,8164
2017-04-18T09:31:47.616Z,8932